createdAt,value
2022-10-23T00:01:47.739Z,64.87
2022-10-23T00:04:18.082Z,61.39
2022-10-23T00:06:46.348Z,57.64
2022-10-23T00:09:16.967Z,56.95
2022-10-23T00:11:47.629Z,58.30
2022-10-23T00:14:17.352Z,59.43
2022-10-23T00:16:46.589Z,60.54
2022-10-23T00:19:14.465Z,61.48
2022-10-23T00:21:42.408Z,65.51
2022-10-23T00:26:44.609Z,60.48
2022-10-23T00:29:12.605Z,56.56
2022-10-23T00:31:40.513Z,56.26
2022-10-23T00:34:10.507Z,57.29
2022-10-23T00:36:38.558Z,58.65
2022-10-23T00:39:06.960Z,59.75
2022-10-23T00:41:37.017Z,60.79
2022-10-23T00:44:05.090Z,61.67
2022-10-23T00:46:33.530Z,66.17
2022-10-23T00:49:03.968Z,64.82
2022-10-23T00:51:36.063Z,60.34
2022-10-23T00:54:23.873Z,56.17
2022-10-23T00:56:54.855Z,55.51
2022-10-23T00:59:23.377Z,57.18
2022-10-23T01:01:51.990Z,58.32
2022-10-23T01:04:20.569Z,59.20
2022-10-23T01:06:53.693Z,60.49
2022-10-23T01:09:50.982Z,60.99
2022-10-23T01:12:30.966Z,65.88
2022-10-23T01:15:14.344Z,63.29
2022-10-23T01:17:56.567Z,57.28
2022-10-23T01:20:50.934Z,56.43
2022-10-23T01:24:01.185Z,57.47
2022-10-23T01:26:51.455Z,58.63
2022-10-23T01:29:19.926Z,59.95
2022-10-23T01:32:13.651Z,61.48
2022-10-23T01:34:41.478Z,66.17
2022-10-23T01:37:12.533Z,64.11
2022-10-23T01:39:45.718Z,59.58
2022-10-23T01:42:17.626Z,55.09
2022-10-23T01:44:52.090Z,55.26
2022-10-23T01:47:24.502Z,56.59
2022-10-23T01:50:02.969Z,58.00
2022-10-23T01:52:31.306Z,59.31
2022-10-23T01:55:01.426Z,60.55
2022-10-23T01:57:32.531Z,61.30
2022-10-23T02:00:07.361Z,64.99
2022-10-23T02:02:53.049Z,64.95
2022-10-23T02:05:25.163Z,60.07
2022-10-23T02:07:54.231Z,55.58
2022-10-23T02:10:27.704Z,54.96
2022-10-23T02:13:34.074Z,56.52
2022-10-23T02:16:06.502Z,57.47
2022-10-23T02:18:55.973Z,58.64
2022-10-23T02:21:57.951Z,59.49
2022-10-23T02:24:30.894Z,60.91
2022-10-23T02:27:06.387Z,65.46
2022-10-23T02:29:44.110Z,64.13
2022-10-23T02:32:14.916Z,58.61
2022-10-23T02:34:42.790Z,55.07
2022-10-23T02:37:11.706Z,55.65
2022-10-23T02:39:39.981Z,56.87
2022-10-23T02:42:30.585Z,58.30
2022-10-23T02:45:24.592Z,59.23
2022-10-23T02:48:01.574Z,59.95
2022-10-23T02:50:38.120Z,61.12
2022-10-23T02:53:25.118Z,65.95
2022-10-23T02:56:14.274Z,64.61
2022-10-23T02:58:47.707Z,59.56
2022-10-23T03:01:22.733Z,55.69
2022-10-23T03:03:53.830Z,55.80
2022-10-23T03:06:23.265Z,57.44
2022-10-23T03:09:05.544Z,58.57
2022-10-23T03:11:33.602Z,59.83
2022-10-23T03:14:01.898Z,60.57
2022-10-23T03:16:30.691Z,61.31
2022-10-23T03:18:58.697Z,65.15
2022-10-23T03:21:26.721Z,65.44
2022-10-23T03:23:54.711Z,60.82
2022-10-23T03:26:38.717Z,56.47
2022-10-23T03:29:06.607Z,56.05
2022-10-23T03:31:37.527Z,57.75
2022-10-23T03:34:11.005Z,58.52
2022-10-23T03:36:41.469Z,59.42
2022-10-23T03:39:10.144Z,60.30
2022-10-23T03:41:39.088Z,61.16
2022-10-23T03:44:07.099Z,65.44
2022-10-23T03:46:34.840Z,65.43
2022-10-23T03:49:02.902Z,61.28
2022-10-23T03:51:30.719Z,57.35
2022-10-23T03:53:58.645Z,56.70
2022-10-23T03:56:26.811Z,58.07
2022-10-23T03:58:54.725Z,59.06
2022-10-23T04:01:25.119Z,60.34
2022-10-23T04:03:53.190Z,61.10
2022-10-23T04:06:21.838Z,65.55
2022-10-23T04:08:50.228Z,64.60
2022-10-23T04:11:18.733Z,60.73
2022-10-23T04:13:47.499Z,56.44
2022-10-23T04:16:15.744Z,55.89
2022-10-23T04:18:45.514Z,57.47
2022-10-23T04:21:13.499Z,58.86
2022-10-23T04:23:41.782Z,59.93
2022-10-23T04:26:18.432Z,60.76
2022-10-23T04:28:46.206Z,61.39
2022-10-23T04:31:14.269Z,65.57
2022-10-23T04:33:43.288Z,66.41
2022-10-23T04:36:14.059Z,62.00
2022-10-23T04:38:41.955Z,57.22
2022-10-23T04:41:10.033Z,56.38
2022-10-23T04:43:37.937Z,57.74
2022-10-23T04:46:06.074Z,58.93
2022-10-23T04:48:35.181Z,60.01
2022-10-23T04:51:21.321Z,60.50
2022-10-23T04:54:09.656Z,61.40
2022-10-23T04:56:55.065Z,66.11
2022-10-23T04:59:22.971Z,64.77
2022-10-23T05:01:51.474Z,60.64
2022-10-23T05:04:19.666Z,56.53
2022-10-23T05:10:09.938Z,57.41
2022-10-23T05:12:48.420Z,58.87
2022-10-23T05:15:16.335Z,59.78
2022-10-23T05:17:46.970Z,60.78
2022-10-23T05:20:19.689Z,61.53
2022-10-23T05:22:50.255Z,65.65
2022-10-23T05:25:21.470Z,65.87
2022-10-23T05:27:53.609Z,60.53
2022-10-23T05:30:22.759Z,55.94
2022-10-23T05:32:54.620Z,54.89
2022-10-23T05:35:25.556Z,56.06
2022-10-23T05:37:54.200Z,57.21
2022-10-23T05:40:24.921Z,58.38
2022-10-23T05:42:59.279Z,59.21
2022-10-23T05:45:39.654Z,60.26
2022-10-23T05:48:35.379Z,61.16
2022-10-23T05:51:40.135Z,67.30
2022-10-23T05:54:27.918Z,64.15
2022-10-23T05:57:14.138Z,56.85
2022-10-23T05:59:45.638Z,56.01
2022-10-23T06:02:28.981Z,57.41
2022-10-23T06:05:03.803Z,58.62
2022-10-23T06:07:50.491Z,59.71
2022-10-23T06:10:18.965Z,61.05
2022-10-23T06:12:47.781Z,65.78
2022-10-23T06:15:17.187Z,64.93
2022-10-23T06:18:02.099Z,60.73
2022-10-23T06:20:33.013Z,56.19
2022-10-23T06:23:07.480Z,55.89
2022-10-23T06:25:58.115Z,57.11
2022-10-23T06:28:51.988Z,58.52
2022-10-23T06:31:21.781Z,60.03
2022-10-23T06:33:51.652Z,60.48
2022-10-23T06:36:20.729Z,61.27
2022-10-23T06:38:49.939Z,65.39
2022-10-23T06:41:20.189Z,64.95
2022-10-23T06:43:51.509Z,60.40
2022-10-23T06:46:35.133Z,56.13
2022-10-23T06:49:21.279Z,56.17
2022-10-23T06:51:49.396Z,57.74
2022-10-23T06:54:18.208Z,59.03
2022-10-23T06:56:51.823Z,60.15
2022-10-23T06:59:23.404Z,61.14
2022-10-23T07:04:26.129Z,64.60
2022-10-23T07:06:57.742Z,60.24
2022-10-23T07:09:30.853Z,56.36
2022-10-23T07:12:00.213Z,56.44
2022-10-23T07:14:36.208Z,58.03
2022-10-23T07:17:07.685Z,59.48
2022-10-23T07:19:35.447Z,60.58
2022-10-23T07:22:13.443Z,61.78
2022-10-23T07:24:54.430Z,66.40
2022-10-23T07:27:26.882Z,64.86
2022-10-23T07:30:00.289Z,60.99
2022-10-23T07:32:31.206Z,57.28
2022-10-23T07:35:18.022Z,56.87
2022-10-23T07:37:56.752Z,58.39
2022-10-23T07:40:32.941Z,59.22
2022-10-23T07:43:10.132Z,59.38
2022-10-23T07:45:43.535Z,61.15
2022-10-23T07:48:24.790Z,65.62
2022-10-23T07:51:11.701Z,64.04
2022-10-23T07:53:56.600Z,59.89
2022-10-23T07:57:04.273Z,55.62
2022-10-23T08:00:02.680Z,56.84
2022-10-23T08:02:45.353Z,57.94
2022-10-23T08:05:13.360Z,59.78
2022-10-23T08:07:56.067Z,60.88
2022-10-23T08:10:23.964Z,61.85
2022-10-23T08:12:51.935Z,64.59
2022-10-23T08:15:34.102Z,62.91
2022-10-23T08:18:15.529Z,57.89
2022-10-23T08:20:52.406Z,56.10
2022-10-23T08:23:29.089Z,57.26
2022-10-23T08:26:05.437Z,58.23
2022-10-23T08:28:37.573Z,59.34
2022-10-23T08:31:25.671Z,61.13
2022-10-23T08:34:18.812Z,61.12
2022-10-23T08:36:48.085Z,65.10
2022-10-23T08:39:19.569Z,65.13
2022-10-23T08:42:27.653Z,60.29
2022-10-23T08:45:13.899Z,55.53
2022-10-23T08:48:03.371Z,54.87
2022-10-23T08:51:22.497Z,56.68
2022-10-23T08:54:12.856Z,57.53
2022-10-23T08:57:08.811Z,56.95
2022-10-23T08:59:43.743Z,57.51
2022-10-23T09:02:22.409Z,58.38
2022-10-23T09:05:02.341Z,58.09
2022-10-23T09:08:16.308Z,57.89
2022-10-23T09:11:22.180Z,58.27
2022-10-23T09:14:19.126Z,57.79
2022-10-23T09:17:11.231Z,58.44
2022-10-23T09:19:46.402Z,57.68
2022-10-23T09:22:14.376Z,58.17
2022-10-23T09:24:53.693Z,57.66
2022-10-23T09:27:31.524Z,57.45
2022-10-23T09:30:28.962Z,56.84
2022-10-23T09:33:26.706Z,56.82
2022-10-23T09:35:59.582Z,56.29
2022-10-23T09:38:40.268Z,55.94
2022-10-23T09:41:33.951Z,55.84
2022-10-23T09:44:24.912Z,55.31
2022-10-23T09:47:27.890Z,55.87
2022-10-23T09:50:19.933Z,55.11
2022-10-23T09:53:02.066Z,55.11
2022-10-23T09:55:36.086Z,55.05
2022-10-23T09:58:05.441Z,53.70
2022-10-23T10:00:34.402Z,54.42
2022-10-23T10:03:18.241Z,53.72
2022-10-23T10:06:37.503Z,53.03
2022-10-23T10:09:20.208Z,52.68
2022-10-23T10:12:52.080Z,52.14
2022-10-23T10:16:09.011Z,50.78
2022-10-23T10:19:10.863Z,51.32
2022-10-23T10:22:01.615Z,49.75
2022-10-23T10:25:18.054Z,48.91
2022-10-23T10:28:00.372Z,48.66
2022-10-23T10:30:45.021Z,49.93
2022-10-23T10:33:42.836Z,49.97
2022-10-23T10:39:35.095Z,50.68
2022-10-23T10:42:39.646Z,51.16
2022-10-23T10:45:49.715Z,51.89
2022-10-23T10:49:04.962Z,51.58
2022-10-23T10:52:29.456Z,52.24
2022-10-23T10:55:23.785Z,51.84
2022-10-23T10:58:25.973Z,51.70
2022-10-23T11:00:59.327Z,51.04
2022-10-23T11:03:39.151Z,50.12
2022-10-23T11:10:18.859Z,49.79
2022-10-23T11:13:06.463Z,48.95
2022-10-23T11:15:40.716Z,48.60
2022-10-23T11:18:27.484Z,49.54
2022-10-23T11:21:18.167Z,49.65
2022-10-23T11:24:04.369Z,49.77
2022-10-23T11:27:05.964Z,48.72
2022-10-23T11:29:46.455Z,48.57
2022-10-23T11:32:29.362Z,48.57
2022-10-23T11:35:18.906Z,48.35
2022-10-23T11:38:09.991Z,48.79
2022-10-23T11:41:18.975Z,47.77
2022-10-23T11:44:11.169Z,47.68
2022-10-23T11:47:06.122Z,47.39
2022-10-23T11:49:41.038Z,47.06
2022-10-23T11:52:24.113Z,47.35
2022-10-23T11:55:30.908Z,47.38
2022-10-23T12:03:04.241Z,46.38
2022-10-23T12:16:01.305Z,47.06
2022-10-23T12:18:29.246Z,46.71
2022-10-23T12:21:02.244Z,47.42
2022-10-23T12:23:42.126Z,47.35
2022-10-23T12:26:31.323Z,47.52
2022-10-23T12:29:15.454Z,47.25
2022-10-23T12:32:27.372Z,46.91
2022-10-23T12:35:19.491Z,47.24
2022-10-23T12:38:14.807Z,47.37
2022-10-23T12:40:46.836Z,47.73
2022-10-23T12:43:35.398Z,47.69
2022-10-23T12:46:18.107Z,47.57
2022-10-23T12:48:49.729Z,47.66
2022-10-23T12:51:26.708Z,47.82
2022-10-23T12:53:54.949Z,47.43
2022-10-23T12:56:24.897Z,47.74
2022-10-23T12:58:57.346Z,47.67
2022-10-23T13:01:32.472Z,47.67
2022-10-23T13:06:47.667Z,46.54
2022-10-23T13:09:23.343Z,46.87
2022-10-23T13:12:27.332Z,45.92
2022-10-23T13:15:06.126Z,45.04
2022-10-23T13:17:43.631Z,43.92
2022-10-23T13:20:18.245Z,43.66
2022-10-23T13:23:00.257Z,42.71
2022-10-23T13:25:34.118Z,42.07
2022-10-23T13:28:28.949Z,40.62
2022-10-23T13:31:05.586Z,39.86
2022-10-23T13:33:53.417Z,39.71
2022-10-23T13:36:23.903Z,39.05
2022-10-23T13:39:09.960Z,38.87
2022-10-23T13:41:46.056Z,37.79
2022-10-23T13:44:17.443Z,37.28
2022-10-23T13:46:45.396Z,36.89
2022-10-23T13:49:13.193Z,36.86
2022-10-23T13:51:53.070Z,37.32
2022-10-23T13:54:23.857Z,37.71
2022-10-23T13:56:52.501Z,38.35
2022-10-23T13:59:20.466Z,38.64
2022-10-23T14:01:50.218Z,38.64
2022-10-23T14:04:19.449Z,38.47
2022-10-23T14:06:47.473Z,38.04
2022-10-23T14:09:18.541Z,37.67
2022-10-23T14:11:46.435Z,38.25
2022-10-23T14:14:14.230Z,39.29
2022-10-23T14:16:42.038Z,39.81
2022-10-23T14:19:11.641Z,39.90
2022-10-23T14:21:39.932Z,40.16
2022-10-23T14:24:09.158Z,40.08
2022-10-23T14:26:37.642Z,40.05
2022-10-23T14:29:09.771Z,40.44
2022-10-23T14:31:39.340Z,41.28
2022-10-23T14:34:07.560Z,42.40
2022-10-23T14:36:49.275Z,43.06
2022-10-23T14:39:18.666Z,43.85
2022-10-23T14:41:47.344Z,45.01
2022-10-23T14:44:15.147Z,45.78
2022-10-23T14:46:42.994Z,46.49
2022-10-23T14:49:10.874Z,46.90
2022-10-23T14:51:38.688Z,47.46
2022-10-23T14:54:07.788Z,47.31
2022-10-23T14:56:37.991Z,48.42
2022-10-23T14:59:06.646Z,49.12
2022-10-23T15:01:41.249Z,50.49
2022-10-23T15:04:14.760Z,51.52
2022-10-23T15:06:43.457Z,51.89
2022-10-23T15:09:11.249Z,52.19
2022-10-23T15:11:39.480Z,53.05
2022-10-23T15:14:07.736Z,53.66
2022-10-23T15:16:41.522Z,54.14
2022-10-23T15:19:18.193Z,54.68
2022-10-23T15:21:47.929Z,55.54
2022-10-23T15:24:17.158Z,55.89
2022-10-23T15:26:45.319Z,56.44
2022-10-23T15:29:14.728Z,56.82
2022-10-23T15:32:13.762Z,57.17
2022-10-23T15:34:42.890Z,57.74
2022-10-23T15:37:11.280Z,58.54
2022-10-23T15:39:39.110Z,58.69
2022-10-23T15:42:07.169Z,59.02
2022-10-23T15:44:35.053Z,59.19
2022-10-23T15:47:03.001Z,59.48
2022-10-23T15:49:30.911Z,59.57
2022-10-23T15:51:59.413Z,59.83
2022-10-23T15:54:30.497Z,60.13
2022-10-23T15:57:02.262Z,60.66
2022-10-23T15:59:32.061Z,60.96
2022-10-23T16:02:00.001Z,61.31
2022-10-23T16:04:28.740Z,61.57
2022-10-23T16:06:56.984Z,61.91
2022-10-23T16:09:24.792Z,65.67
2022-10-23T16:11:52.551Z,65.57
2022-10-23T16:14:20.376Z,61.00
2022-10-23T16:16:48.228Z,56.85
2022-10-23T16:19:16.025Z,55.91
2022-10-23T16:21:43.872Z,56.74
2022-10-23T16:24:11.828Z,57.73
2022-10-23T16:26:39.923Z,58.41
2022-10-23T16:29:09.325Z,59.21
2022-10-23T16:31:37.621Z,59.92
2022-10-23T16:34:06.719Z,60.59
2022-10-23T16:36:35.300Z,61.14
2022-10-23T16:39:29.754Z,61.40
2022-10-23T16:45:12.014Z,63.90
2022-10-23T16:47:39.962Z,59.69
2022-10-23T16:50:08.503Z,56.30
2022-10-23T16:52:36.431Z,55.99
2022-10-23T16:55:07.174Z,56.99
2022-10-23T16:57:36.101Z,58.02
2022-10-23T17:00:05.475Z,58.97
2022-10-23T17:02:35.511Z,59.78
2022-10-23T17:05:03.954Z,60.55
2022-10-23T17:07:32.613Z,61.13
2022-10-23T17:10:00.753Z,61.74
2022-10-23T17:12:28.667Z,65.50
2022-10-23T17:14:56.660Z,64.92
2022-10-23T17:17:24.807Z,61.58
2022-10-23T17:19:52.674Z,57.56
2022-10-23T17:22:20.819Z,56.53
2022-10-23T17:24:51.474Z,57.31
2022-10-23T17:27:21.849Z,58.25
2022-10-23T17:29:49.652Z,59.45
2022-10-23T17:32:17.710Z,60.28
2022-10-23T17:34:46.658Z,61.09
2022-10-23T17:37:14.517Z,64.77
2022-10-23T17:39:42.317Z,65.17
2022-10-23T17:42:10.260Z,61.92
2022-10-23T17:44:38.073Z,58.29
2022-10-23T17:47:05.846Z,56.84
2022-10-23T17:49:33.696Z,57.49
2022-10-23T17:52:02.107Z,58.72
2022-10-23T17:54:30.294Z,59.75
2022-10-23T17:56:58.851Z,60.34
2022-10-23T17:59:26.973Z,61.53
2022-10-23T18:01:55.968Z,65.52
2022-10-23T18:04:25.296Z,64.88
2022-10-23T18:06:53.644Z,61.35
2022-10-23T18:09:22.608Z,57.41
2022-10-23T18:11:50.838Z,56.86
2022-10-23T18:14:20.319Z,58.07
2022-10-23T18:16:49.560Z,59.42
2022-10-23T18:19:18.480Z,60.48
2022-10-23T18:21:47.430Z,61.67
2022-10-23T18:24:15.924Z,65.58
2022-10-23T18:26:44.372Z,65.10
2022-10-23T18:29:12.771Z,62.46
2022-10-23T18:31:41.532Z,60.61
2022-10-23T18:34:21.552Z,57.68
2022-10-23T18:36:51.314Z,57.33
2022-10-23T18:39:22.517Z,58.68
2022-10-23T18:41:56.317Z,59.97
2022-10-23T18:44:26.951Z,61.27
2022-10-23T18:46:57.055Z,65.02
2022-10-23T18:49:25.163Z,64.86
2022-10-23T18:51:53.333Z,62.32
2022-10-23T18:54:21.823Z,59.83
2022-10-23T18:56:50.211Z,56.58
2022-10-23T18:59:20.171Z,56.61
2022-10-23T19:01:49.004Z,58.43
2022-10-23T19:04:18.386Z,59.92
2022-10-23T19:06:47.779Z,61.49
2022-10-23T19:09:15.911Z,65.78
2022-10-23T19:11:44.068Z,64.34
2022-10-23T19:14:11.957Z,61.76
2022-10-23T19:16:45.325Z,58.31
2022-10-23T19:19:20.605Z,57.60
2022-10-23T19:21:49.247Z,58.86
2022-10-23T19:24:23.241Z,60.68
2022-10-23T19:26:51.106Z,61.58
2022-10-23T19:29:22.007Z,65.85
2022-10-23T19:31:50.751Z,64.79
2022-10-23T19:34:20.180Z,62.01
2022-10-23T19:36:48.760Z,59.51
2022-10-23T19:39:17.170Z,56.96
2022-10-23T19:41:45.648Z,57.02
2022-10-23T19:44:14.503Z,58.20
2022-10-23T19:46:42.350Z,59.55
2022-10-23T19:49:10.791Z,60.79
2022-10-23T19:51:39.512Z,61.75
2022-10-23T19:54:07.499Z,65.91
2022-10-23T19:56:36.150Z,64.98
2022-10-23T19:59:04.345Z,62.06
2022-10-23T20:01:32.347Z,59.34
2022-10-23T20:04:00.444Z,56.59
2022-10-23T20:06:31.949Z,56.43
2022-10-23T20:09:01.264Z,58.30
2022-10-23T20:11:30.616Z,59.97
2022-10-23T20:13:59.222Z,61.55
2022-10-23T20:16:33.510Z,65.37
2022-10-23T20:19:06.955Z,64.61
2022-10-23T20:21:35.986Z,61.08
2022-10-23T20:24:04.015Z,57.91
2022-10-23T20:26:32.042Z,57.34
2022-10-23T20:28:59.909Z,58.81
2022-10-23T20:31:27.880Z,60.07
2022-10-23T20:33:56.407Z,61.84
2022-10-23T20:36:46.688Z,65.28
2022-10-23T20:39:18.798Z,65.45
2022-10-23T20:41:47.578Z,60.65
2022-10-23T20:46:49.952Z,56.40
2022-10-23T20:49:18.921Z,57.76
2022-10-23T20:51:54.866Z,59.07
2022-10-23T20:54:28.646Z,60.24
2022-10-23T20:56:57.126Z,60.96
2022-10-23T20:59:25.466Z,65.54
2022-10-23T21:01:55.357Z,64.85
2022-10-23T21:04:26.480Z,60.54
2022-10-23T21:07:11.700Z,56.66
2022-10-23T21:09:40.217Z,56.55
2022-10-23T21:12:08.660Z,58.14
2022-10-23T21:14:36.680Z,59.64
2022-10-23T21:17:04.781Z,60.87
2022-10-23T21:19:32.582Z,64.23
2022-10-23T21:22:00.496Z,63.94
2022-10-23T21:24:28.223Z,61.09
2022-10-23T21:26:56.066Z,58.34
2022-10-23T21:29:23.931Z,57.59
2022-10-23T21:31:55.924Z,58.90
2022-10-23T21:34:25.394Z,60.11
2022-10-23T21:37:12.598Z,61.14
2022-10-23T21:39:42.852Z,64.99
2022-10-23T21:42:12.057Z,64.56
2022-10-23T21:44:40.210Z,61.35
2022-10-23T21:47:08.096Z,57.14
2022-10-23T21:49:35.917Z,56.69
2022-10-23T21:52:04.243Z,57.82
2022-10-23T21:54:32.043Z,59.46
2022-10-23T21:56:59.872Z,60.70
2022-10-23T21:59:30.139Z,61.59
2022-10-23T22:01:59.761Z,65.46
2022-10-23T22:04:27.687Z,64.82
2022-10-23T22:06:55.675Z,61.27
2022-10-23T22:09:23.569Z,58.02
2022-10-23T22:11:52.616Z,57.38
2022-10-23T22:14:21.896Z,58.67
2022-10-23T22:16:49.783Z,60.25
2022-10-23T22:19:18.688Z,61.07
2022-10-23T22:21:47.924Z,64.99
2022-10-23T22:24:16.331Z,64.36
2022-10-23T22:26:47.717Z,61.54
2022-10-23T22:29:18.286Z,57.47
2022-10-23T22:31:48.949Z,57.04
2022-10-23T22:34:34.169Z,58.41
2022-10-23T22:37:09.951Z,59.23
2022-10-23T22:40:35.945Z,61.10
2022-10-23T22:43:04.066Z,65.92
2022-10-23T22:45:31.797Z,63.40
2022-10-23T22:47:59.531Z,60.50
2022-10-23T22:50:27.627Z,56.86
2022-10-23T22:52:55.362Z,56.74
2022-10-23T22:55:23.125Z,58.23
2022-10-23T22:57:50.892Z,59.72
2022-10-23T23:01:38.416Z,60.76
2022-10-23T23:04:19.744Z,66.47
2022-10-23T23:06:54.376Z,62.49
2022-10-23T23:09:22.300Z,57.80
2022-10-23T23:11:52.025Z,56.68
2022-10-23T23:14:23.625Z,57.86
2022-10-23T23:16:54.464Z,59.47
2022-10-23T23:19:23.291Z,60.56
2022-10-23T23:21:51.186Z,64.48
2022-10-23T23:24:18.976Z,64.39
2022-10-23T23:26:46.790Z,61.91
2022-10-23T23:29:14.553Z,59.55
2022-10-23T23:31:45.976Z,57.12
2022-10-23T23:34:14.010Z,56.87
2022-10-23T23:36:41.798Z,58.16
2022-10-23T23:39:10.436Z,59.56
2022-10-23T23:41:38.387Z,60.45
2022-10-23T23:44:06.602Z,64.19
2022-10-23T23:46:34.405Z,64.51
2022-10-23T23:49:02.218Z,61.60
2022-10-23T23:51:30.373Z,58.13
2022-10-23T23:53:58.135Z,57.04
2022-10-23T23:56:25.987Z,58.38
2022-10-23T23:58:53.742Z,59.48
